Time;durP1;ratioP1;P1;durP2;ratioP2;P2;SDS_P1;SDS_P2;PMS_P1;PMS_P2;Temp;Humidity;BMP_temperature;BMP_pressure;BME280_temperature;BME280_humidity;BME280_pressure;Samples;Min_cycle;Max_cycle;Signal;HPM_P1;HPM_P2
2024/03/27 00:01:10;;;;;;;119.55;17.63;;;15.70;74.20;;;;;;5064440;28;20058;-58
2024/03/27 00:03:37;;;;;;;103.38;16.00;;;15.60;74.10;;;;;;5064566;28;20506;-58
2024/03/27 00:06:06;;;;;;;80.88;14.48;;;15.60;74.30;;;;;;5045682;28;20021;-58
2024/03/27 00:08:32;;;;;;;97.68;15.80;;;15.60;74.40;;;;;;5045854;28;20086;-58
2024/03/27 00:10:58;;;;;;;101.63;14.90;;;15.60;74.50;;;;;;5044444;28;20076;-58
2024/03/27 00:13:24;;;;;;;83.68;15.40;;;15.50;74.60;;;;;;5049661;28;20048;-58
2024/03/27 00:15:50;;;;;;;85.80;14.13;;;15.50;74.50;;;;;;5065875;28;20029;-58
2024/03/27 00:18:16;;;;;;;103.28;15.18;;;15.50;74.70;;;;;;5064337;28;20025;-58
2024/03/27 00:20:41;;;;;;;95.80;15.02;;;15.40;74.70;;;;;;5065290;28;20150;-58
2024/03/27 00:23:07;;;;;;;81.90;13.45;;;15.40;74.80;;;;;;5054316;28;20140;-58
2024/03/27 00:25:33;;;;;;;80.50;13.10;;;15.40;74.80;;;;;;5027306;28;20329;-58
2024/03/27 00:27:59;;;;;;;98.70;15.00;;;15.40;74.80;;;;;;5043643;28;20037;-58
2024/03/27 00:30:25;;;;;;;70.45;13.88;;;15.30;74.80;;;;;;5043840;28;20079;-58
2024/03/27 00:32:55;;;;;;;91.40;13.57;;;15.30;74.90;;;;;;5058267;28;20029;-58
2024/03/27 00:35:21;;;;;;;77.65;12.75;;;15.30;74.90;;;;;;5064288;28;20029;-58
2024/03/27 00:37:47;;;;;;;76.45;12.95;;;15.30;75.10;;;;;;5063982;28;20027;-58
2024/03/27 00:40:13;;;;;;;89.72;13.77;;;15.30;75.20;;;;;;5062247;28;20056;-58
2024/03/27 00:42:39;;;;;;;70.65;12.32;;;15.30;75.10;;;;;;5043988;28;20073;-58
2024/03/27 00:45:04;;;;;;;77.40;12.13;;;15.30;75.20;;;;;;5045058;28;20509;-58
2024/03/27 00:47:30;;;;;;;77.15;12.07;;;15.20;75.30;;;;;;5043578;28;20156;-58
2024/03/27 00:49:56;;;;;;;58.88;10.93;;;15.20;75.30;;;;;;5049377;28;20063;-58
2024/03/27 00:52:22;;;;;;;72.13;11.90;;;15.20;75.30;;;;;;5063297;28;20025;-58
2024/03/27 00:54:48;;;;;;;89.30;12.50;;;15.20;75.20;;;;;;5063451;28;20107;-58
2024/03/27 00:57:13;;;;;;;70.90;10.82;;;15.10;75.30;;;;;;5063559;28;20029;-58
2024/03/27 00:59:39;;;;;;;62.40;11.77;;;15.10;75.40;;;;;;5064003;28;20028;-58
2024/03/27 01:02:05;;;;;;;78.93;12.07;;;15.10;75.50;;;;;;5063535;28;20036;-58
2024/03/27 01:04:32;;;;;;;80.57;12.35;;;15.10;75.50;;;;;;5063287;28;20021;-58
2024/03/27 01:06:57;;;;;;;63.53;11.20;;;15.00;75.60;;;;;;5079963;28;20060;-58
2024/03/27 01:09:23;;;;;;;78.13;12.18;;;15.00;75.70;;;;;;5062468;28;20040;-58
2024/03/27 01:11:48;;;;;;;74.18;12.88;;;15.00;75.70;;;;;;5046587;28;20033;-58
2024/03/27 01:14:14;;;;;;;63.47;11.60;;;15.00;75.70;;;;;;5064668;28;20463;-58
2024/03/27 01:16:40;;;;;;;58.75;10.10;;;15.00;75.90;;;;;;5060126;28;20051;-58
2024/03/27 01:19:06;;;;;;;53.58;9.77;;;14.90;75.90;;;;;;5043193;28;20026;-58
2024/03/27 01:21:32;;;;;;;60.50;10.90;;;14.90;75.90;;;;;;5059592;28;20060;-58
2024/03/27 01:23:58;;;;;;;53.03;10.27;;;14.90;75.90;;;;;;5043161;28;20021;-58
2024/03/27 01:26:24;;;;;;;52.15;10.30;;;14.90;76.00;;;;;;5044688;28;20036;-58
2024/03/27 01:28:49;;;;;;;57.20;10.98;;;14.90;76.10;;;;;;5044510;28;20117;-58
2024/03/27 01:31:15;;;;;;;51.88;9.80;;;14.80;76.20;;;;;;5043042;28;20033;-58
2024/03/27 01:33:40;;;;;;;48.30;9.43;;;14.80;76.00;;;;;;5044541;28;20056;-58
2024/03/27 01:36:06;;;;;;;55.28;10.00;;;14.80;76.30;;;;;;5072113;28;20033;-58
2024/03/27 01:38:32;;;;;;;43.95;8.68;;;14.80;76.30;;;;;;5064271;28;20060;-58
2024/03/27 01:40:58;;;;;;;47.38;9.00;;;14.70;76.80;;;;;;5062505;28;20032;-58
2024/03/27 01:43:24;;;;;;;43.70;7.90;;;14.70;76.30;;;;;;5062394;28;20043;-58
2024/03/27 01:45:50;;;;;;;43.72;7.93;;;14.70;76.40;;;;;;5060617;28;20051;-58
2024/03/27 01:48:16;;;;;;;44.13;7.88;;;14.70;76.40;;;;;;5061547;28;20029;-58
2024/03/27 01:50:42;;;;;;;40.63;10.32;;;14.70;76.30;;;;;;5061618;28;20040;-58
2024/03/27 01:53:10;;;;;;;48.33;7.88;;;14.60;76.40;;;;;;5061391;28;20032;-58
2024/03/27 01:55:35;;;;;;;40.53;7.97;;;14.60;76.50;;;;;;5062489;28;20432;-58
2024/03/27 01:58:01;;;;;;;50.40;9.00;;;14.60;76.60;;;;;;5054042;28;20107;-58
2024/03/27 02:00:27;;;;;;;45.88;8.80;;;14.60;76.60;;;;;;5042832;28;20026;-58
2024/03/27 02:02:52;;;;;;;47.30;8.90;;;14.50;76.60;;;;;;5062382;28;20029;-58
2024/03/27 02:05:18;;;;;;;44.85;8.20;;;14.50;76.70;;;;;;5062193;28;20031;-58
2024/03/27 02:07:44;;;;;;;39.08;7.53;;;14.50;76.80;;;;;;5062541;28;20036;-58
2024/03/27 02:10:09;;;;;;;45.22;8.30;;;14.50;76.80;;;;;;5062829;28;20079;-58
2024/03/27 02:12:35;;;;;;;36.78;7.43;;;14.40;76.80;;;;;;5051140;28;20045;-58
2024/03/27 02:15:05;;;;;;;36.15;7.93;;;14.40;76.90;;;;;;5042403;28;20048;-58
2024/03/27 02:17:30;;;;;;;38.35;8.00;;;14.40;77.00;;;;;;5059171;28;20037;-58
2024/03/27 02:19:56;;;;;;;39.42;7.47;;;14.40;76.90;;;;;;5059147;28;20123;-58
2024/03/27 02:22:23;;;;;;;34.47;7.45;;;14.40;77.00;;;;;;5060129;28;20097;-58
2024/03/27 02:25:32;;;;;;;39.40;7.90;;;14.40;77.10;;;;;;5062248;28;20106;-58
2024/03/27 02:27:58;;;;;;;40.65;7.60;;;14.30;77.00;;;;;;5060898;28;20456;-58
2024/03/27 02:30:23;;;;;;;34.70;7.47;;;14.30;77.20;;;;;;5051322;28;20048;-58
2024/03/27 02:32:49;;;;;;;43.03;7.10;;;14.20;77.30;;;;;;5059912;28;20044;-58
2024/03/27 02:35:18;;;;;;;38.75;7.68;;;14.20;77.40;;;;;;5045636;28;20021;-58
2024/03/27 02:37:44;;;;;;;31.13;6.38;;;14.20;77.40;;;;;;5062542;28;20040;-58
2024/03/27 02:40:10;;;;;;;33.40;6.53;;;14.20;77.40;;;;;;5053459;28;20051;-58
2024/03/27 02:42:36;;;;;;;37.35;6.75;;;14.20;77.50;;;;;;5063480;28;20029;-58
2024/03/27 02:45:02;;;;;;;30.00;7.45;;;14.10;77.60;;;;;;5062182;28;20025;-58
2024/03/27 02:47:27;;;;;;;40.00;6.35;;;14.10;77.50;;;;;;5057036;28;20026;-58
2024/03/27 02:49:53;;;;;;;30.75;6.90;;;14.10;77.50;;;;;;5042214;28;20029;-58
2024/03/27 02:52:18;;;;;;;37.47;7.22;;;14.10;77.50;;;;;;5042140;28;20133;-58
2024/03/27 02:54:44;;;;;;;26.65;6.10;;;14.10;77.70;;;;;;5041989;28;20124;-58
2024/03/27 02:57:10;;;;;;;27.63;5.88;;;14.10;77.80;;;;;;5043483;28;20034;-58
2024/03/27 02:59:35;;;;;;;42.03;6.93;;;14.00;77.70;;;;;;5043310;28;20037;-58
2024/03/27 03:02:01;;;;;;;28.55;5.43;;;14.00;77.70;;;;;;5046991;28;20034;-58
2024/03/27 03:04:26;;;;;;;29.85;5.68;;;14.00;77.80;;;;;;5047023;28;20357;-58
2024/03/27 03:06:52;;;;;;;23.13;5.55;;;14.00;77.80;;;;;;5046913;28;20036;-58
2024/03/27 03:09:18;;;;;;;20.63;6.03;;;13.90;77.80;;;;;;5046909;28;20025;-58
2024/03/27 03:11:44;;;;;;;27.42;5.85;;;14.00;78.00;;;;;;5045496;28;20061;-58
2024/03/27 03:14:09;;;;;;;28.55;6.90;;;13.90;78.00;;;;;;5045569;28;20025;-58
2024/03/27 03:16:35;;;;;;;22.50;5.45;;;13.90;78.00;;;;;;5045658;28;20033;-58
2024/03/27 03:19:01;;;;;;;30.90;6.43;;;13.80;78.10;;;;;;5045602;28;20044;-58
2024/03/27 03:21:26;;;;;;;24.70;5.03;;;13.80;78.10;;;;;;5045360;28;20372;-58
2024/03/27 03:23:52;;;;;;;20.77;5.25;;;13.80;78.10;;;;;;5045286;28;20076;-57
2024/03/27 03:26:17;;;;;;;25.77;5.43;;;13.80;78.20;;;;;;5045487;28;20029;-58
2024/03/27 03:28:43;;;;;;;24.77;4.80;;;13.80;78.20;;;;;;5045267;28;20395;-58
2024/03/27 03:31:09;;;;;;;22.55;5.10;;;13.70;78.30;;;;;;5028789;28;20105;-58
2024/03/27 03:33:34;;;;;;;21.33;4.70;;;13.70;78.30;;;;;;5045085;28;20025;-58
2024/03/27 03:36:00;;;;;;;21.17;4.90;;;13.70;78.50;;;;;;5028628;28;20037;-59
2024/03/27 03:38:26;;;;;;;28.38;5.00;;;13.70;78.50;;;;;;5045230;28;20030;-58
2024/03/27 03:41:02;;;;;;;22.13;4.97;;;13.70;78.50;;;;;;5044865;28;20030;-58
2024/03/27 03:43:28;;;;;;;24.70;5.20;;;13.70;79.10;;;;;;5028663;28;20033;-58
2024/03/27 03:45:54;;;;;;;22.10;5.15;;;13.70;78.50;;;;;;5046325;28;20021;-58
2024/03/27 03:48:21;;;;;;;21.77;4.95;;;13.60;78.50;;;;;;5044990;28;20160;-58
2024/03/27 03:50:47;;;;;;;31.02;5.13;;;13.60;78.60;;;;;;5045100;28;20029;-58
2024/03/27 03:53:13;;;;;;;16.80;4.47;;;13.60;78.50;;;;;;5028285;28;20096;-58
2024/03/27 03:55:40;;;;;;;19.98;4.25;;;13.60;78.60;;;;;;5046557;28;20029;-58
2024/03/27 03:58:06;;;;;;;23.75;4.85;;;13.50;78.60;;;;;;5045354;28;20072;-58
2024/03/27 04:00:31;;;;;;;19.88;5.40;;;13.50;78.60;;;;;;5044649;28;20033;-58
2024/03/27 04:02:57;;;;;;;19.77;5.05;;;13.50;78.60;;;;;;5046183;28;20408;-58
2024/03/27 04:05:23;;;;;;;20.40;4.47;;;13.50;78.60;;;;;;5046010;28;20079;-58
2024/03/27 04:07:48;;;;;;;22.67;4.78;;;13.50;78.70;;;;;;5044611;28;20030;-58
2024/03/27 04:10:14;;;;;;;20.15;4.28;;;13.40;78.70;;;;;;5044662;28;20334;-58
2024/03/27 04:12:40;;;;;;;18.65;4.40;;;13.40;78.70;;;;;;5044188;28;20037;-58
2024/03/27 04:15:06;;;;;;;21.52;3.83;;;13.40;79.00;;;;;;5044372;28;20159;-58
2024/03/27 04:17:32;;;;;;;14.65;4.65;;;13.40;78.90;;;;;;5044327;28;20407;-58
2024/03/27 04:20:01;;;;;;;17.88;4.55;;;13.40;79.50;;;;;;5044370;28;20044;-58
2024/03/27 04:22:30;;;;;;;10.27;3.92;;;13.30;78.90;;;;;;5044125;28;20045;-58
2024/03/27 04:24:56;;;;;;;15.80;3.60;;;13.30;79.00;;;;;;5044213;28;20048;-58
2024/03/27 04:27:22;;;;;;;12.32;3.95;;;13.30;79.20;;;;;;5043866;28;20033;-58
2024/03/27 04:29:47;;;;;;;22.35;3.70;;;13.30;79.10;;;;;;5027284;28;20096;-58
2024/03/27 04:32:13;;;;;;;14.25;4.30;;;13.30;79.10;;;;;;5027387;28;20041;-58
2024/03/27 04:34:39;;;;;;;20.45;3.70;;;13.30;79.20;;;;;;5043659;28;20091;-58
2024/03/27 04:37:05;;;;;;;16.92;4.20;;;13.30;79.40;;;;;;5045189;28;20111;-58
2024/03/27 04:39:30;;;;;;;13.85;4.13;;;13.20;79.20;;;;;;5043435;28;20034;-58
2024/03/27 04:41:56;;;;;;;12.00;3.53;;;13.20;79.30;;;;;;5043765;28;20048;-58
2024/03/27 04:44:21;;;;;;;14.15;3.67;;;13.20;79.50;;;;;;5044053;28;20098;-58
2024/03/27 04:46:47;;;;;;;10.25;3.42;;;13.20;79.40;;;;;;5045232;28;20045;-58
2024/03/27 04:49:13;;;;;;;13.70;4.43;;;13.20;79.40;;;;;;5027180;28;20448;-58
2024/03/27 04:51:38;;;;;;;9.77;3.33;;;13.10;79.40;;;;;;5044987;28;20059;-58
2024/03/27 04:54:04;;;;;;;14.30;3.65;;;13.20;79.50;;;;;;5045009;28;20032;-58
2024/03/27 04:56:30;;;;;;;16.95;4.28;;;13.10;79.40;;;;;;5027129;28;20124;-58
2024/03/27 04:58:56;;;;;;;12.20;3.55;;;13.10;79.40;;;;;;5043586;28;20030;-58
2024/03/27 05:01:21;;;;;;;16.95;3.65;;;13.10;79.50;;;;;;5043677;28;20373;-58
2024/03/27 05:03:47;;;;;;;14.30;4.03;;;13.10;79.50;;;;;;5044564;28;20087;-58
2024/03/27 05:06:14;;;;;;;14.70;3.47;;;13.10;79.60;;;;;;5044640;28;20029;-59
2024/03/27 05:08:39;;;;;;;13.75;3.88;;;13.10;79.70;;;;;;5043222;28;20068;-58
2024/03/27 05:11:06;;;;;;;20.88;4.10;;;13.10;79.60;;;;;;5043237;28;20504;-58
2024/03/27 05:13:32;;;;;;;20.08;4.07;;;13.10;79.70;;;;;;5042941;28;20050;-58
2024/03/27 05:15:57;;;;;;;18.17;3.75;;;13.00;79.70;;;;;;5043254;28;20021;-58
2024/03/27 05:18:23;;;;;;;29.13;4.38;;;13.00;79.90;;;;;;5043331;28;20033;-58
2024/03/27 05:20:49;;;;;;;17.83;3.42;;;13.00;79.90;;;;;;5044583;28;20139;-58
2024/03/27 05:23:15;;;;;;;20.50;4.10;;;13.00;79.90;;;;;;5042205;28;20049;-59
2024/03/27 05:25:41;;;;;;;16.23;3.67;;;12.90;80.00;;;;;;5043068;28;20112;-58
2024/03/27 05:28:07;;;;;;;16.75;4.43;;;13.00;80.10;;;;;;5033499;28;20133;-58
2024/03/27 05:30:33;;;;;;;18.98;3.40;;;13.00;80.20;;;;;;5062280;28;20159;-58
2024/03/27 05:32:58;;;;;;;11.18;3.03;;;13.00;80.20;;;;;;5062711;28;20048;-58
2024/03/27 05:35:24;;;;;;;10.00;3.60;;;13.00;80.20;;;;;;5062934;28;20040;-58
2024/03/27 05:37:49;;;;;;;18.80;3.50;;;13.00;80.20;;;;;;5064023;28;20051;-58
2024/03/27 05:40:15;;;;;;;18.70;3.55;;;12.90;80.10;;;;;;5062629;28;20029;-58
2024/03/27 05:42:44;;;;;;;15.77;4.25;;;13.00;80.20;;;;;;5063875;28;20045;-58
2024/03/27 05:45:10;;;;;;;22.90;4.75;;;13.00;80.30;;;;;;5046008;28;20263;-58
2024/03/27 05:47:37;;;;;;;25.90;4.95;;;13.00;80.30;;;;;;5062653;28;20029;-58
2024/03/27 05:50:05;;;;;;;30.48;6.07;;;12.90;80.30;;;;;;5029735;28;20120;-58
2024/03/27 05:52:30;;;;;;;33.20;5.40;;;12.90;80.30;;;;;;5064065;28;20033;-58
2024/03/27 05:54:56;;;;;;;46.85;7.25;;;12.90;80.40;;;;;;5062915;28;20063;-58
2024/03/27 05:57:22;;;;;;;46.08;6.95;;;12.90;80.40;;;;;;5046331;28;20032;-58
2024/03/27 05:59:48;;;;;;;37.60;7.22;;;12.90;80.40;;;;;;5063896;28;20086;-58
2024/03/27 06:02:14;;;;;;;51.47;8.10;;;13.00;80.70;;;;;;5029323;28;20029;-58
2024/03/27 06:04:39;;;;;;;54.25;9.10;;;12.90;80.70;;;;;;5062590;28;20067;-58
2024/03/27 06:07:06;;;;;;;38.15;7.25;;;12.90;80.90;;;;;;5034168;28;20507;-58
2024/03/27 06:09:32;;;;;;;32.63;6.90;;;12.90;80.90;;;;;;5043893;28;20392;-59
2024/03/27 06:11:57;;;;;;;39.25;7.28;;;12.90;81.10;;;;;;5043589;28;20025;-58
2024/03/27 06:14:23;;;;;;;43.28;7.30;;;12.90;81.10;;;;;;5041379;28;20030;-58
2024/03/27 06:16:49;;;;;;;53.42;8.50;;;12.90;81.20;;;;;;5062779;28;20053;-58
2024/03/27 06:19:16;;;;;;;45.10;7.57;;;12.90;81.30;;;;;;5045057;28;20025;-58
2024/03/27 06:21:42;;;;;;;44.00;8.02;;;12.90;81.40;;;;;;5058796;28;20037;-59
2024/03/27 06:24:08;;;;;;;47.00;7.03;;;12.90;81.50;;;;;;5025910;28;20028;-58
2024/03/27 06:26:34;;;;;;;41.80;8.55;;;12.90;82.10;;;;;;5042568;28;20091;-58
2024/03/27 06:29:00;;;;;;;62.00;11.50;;;12.90;81.40;;;;;;5042404;28;20021;-58
2024/03/27 06:31:26;;;;;;;48.83;10.55;;;12.90;81.50;;;;;;5041999;28;20487;-58
2024/03/27 06:33:51;;;;;;;56.63;11.00;;;12.90;81.60;;;;;;5026038;28;20030;-58
2024/03/27 06:36:17;;;;;;;67.38;10.52;;;12.90;81.90;;;;;;5044532;28;20033;-57
2024/03/27 06:38:42;;;;;;;45.50;9.13;;;12.90;81.90;;;;;;5045573;28;20052;-58
2024/03/27 06:41:08;;;;;;;46.15;9.82;;;12.90;82.00;;;;;;5060642;28;20037;-58
2024/03/27 06:43:34;;;;;;;43.05;9.00;;;12.90;82.10;;;;;;5044049;28;20083;-58
2024/03/27 06:45:59;;;;;;;49.45;9.05;;;12.90;82.20;;;;;;5027215;28;20025;-58
2024/03/27 06:48:32;;;;;;;54.20;9.80;;;12.90;82.40;;;;;;5044003;28;20032;-58
2024/03/27 06:50:58;;;;;;;45.63;8.85;;;12.90;82.50;;;;;;5045462;28;20056;-58
2024/03/27 06:53:24;;;;;;;46.83;9.98;;;12.90;82.70;;;;;;5043946;28;20037;-58
2024/03/27 06:55:50;;;;;;;41.10;8.70;;;12.90;83.00;;;;;;5050989;28;20040;-59
2024/03/27 06:58:16;;;;;;;46.75;8.43;;;12.90;83.10;;;;;;5065159;28;20088;-58
2024/03/27 07:00:42;;;;;;;38.33;8.93;;;12.90;83.10;;;;;;5067263;28;20029;-58
2024/03/27 07:03:07;;;;;;;44.92;9.00;;;12.90;83.40;;;;;;5065760;28;20036;-58
2024/03/27 07:05:34;;;;;;;44.70;7.68;;;12.90;83.50;;;;;;5063193;28;20432;-59
2024/03/27 07:07:59;;;;;;;32.08;7.07;;;12.90;83.60;;;;;;5042381;28;20036;-58
2024/03/27 07:10:25;;;;;;;29.63;7.82;;;12.90;83.90;;;;;;5064383;28;20105;-58
2024/03/27 07:12:51;;;;;;;30.67;7.07;;;12.90;83.90;;;;;;5066913;28;20117;-58
2024/03/27 07:15:16;;;;;;;29.55;6.55;;;12.90;84.20;;;;;;5066889;28;20061;-58
2024/03/27 07:17:42;;;;;;;23.15;6.35;;;12.90;84.10;;;;;;5066892;28;20508;-58
2024/03/27 07:20:09;;;;;;;24.52;6.25;;;13.00;84.30;;;;;;5066829;28;20024;-59
2024/03/27 07:22:34;;;;;;;22.88;6.32;;;13.00;84.60;;;;;;5048310;28;20088;-58
2024/03/27 07:25:00;;;;;;;23.40;6.32;;;13.00;84.60;;;;;;5065116;28;20035;-57
2024/03/27 07:27:25;;;;;;;21.17;5.22;;;13.00;84.70;;;;;;5065506;28;20196;-58
2024/03/27 07:29:51;;;;;;;21.70;5.43;;;13.00;85.00;;;;;;5065255;28;20056;-58
2024/03/27 07:32:17;;;;;;;27.75;5.30;;;13.00;85.00;;;;;;5065056;28;20116;-58
2024/03/27 07:34:42;;;;;;;25.02;6.00;;;13.00;85.10;;;;;;5065069;28;20036;-58
2024/03/27 07:37:08;;;;;;;17.83;4.70;;;13.00;85.30;;;;;;5065205;28;20091;-58
2024/03/27 07:39:33;;;;;;;26.40;5.53;;;13.00;85.40;;;;;;5065093;28;20036;-58
2024/03/27 07:41:59;;;;;;;25.38;6.10;;;13.00;85.40;;;;;;5064818;28;20044;-58
2024/03/27 07:44:25;;;;;;;22.92;5.03;;;13.10;85.60;;;;;;5066295;28;20052;-58
2024/03/27 07:46:50;;;;;;;22.90;5.32;;;13.10;85.60;;;;;;5065608;28;20040;-58
2024/03/27 07:49:16;;;;;;;20.65;4.72;;;13.10;85.60;;;;;;5064789;28;20079;-58
2024/03/27 07:51:41;;;;;;;24.50;5.90;;;13.10;85.70;;;;;;5066397;28;20029;-58
2024/03/27 07:54:07;;;;;;;25.27;5.88;;;13.10;85.90;;;;;;5065967;28;20025;-58
2024/03/27 07:56:33;;;;;;;19.50;4.90;;;13.20;86.00;;;;;;5064652;28;20044;-60
2024/03/27 07:58:59;;;;;;;19.73;4.68;;;13.20;86.00;;;;;;5064818;28;20047;-60
2024/03/27 08:01:24;;;;;;;18.25;4.47;;;13.20;85.90;;;;;;5065764;28;20543;-60
2024/03/27 08:03:50;;;;;;;19.83;4.15;;;13.20;86.10;;;;;;5065947;28;20076;-60
2024/03/27 08:06:15;;;;;;;17.60;4.53;;;13.20;86.60;;;;;;5064502;28;20163;-60
2024/03/27 08:08:41;;;;;;;21.27;4.88;;;13.20;87.20;;;;;;5064562;28;20443;-60
2024/03/27 08:11:09;;;;;;;32.83;5.50;;;13.20;86.60;;;;;;5064600;28;20085;-61
2024/03/27 08:13:34;;;;;;;126.25;14.65;;;13.20;86.50;;;;;;5065762;28;20047;-61
2024/03/27 08:16:01;;;;;;;40.45;6.40;;;13.30;86.60;;;;;;5047900;28;20127;-60
2024/03/27 08:18:27;;;;;;;27.20;5.97;;;13.30;86.80;;;;;;5064836;28;20041;-60
2024/03/27 08:20:53;;;;;;;39.70;6.10;;;13.30;87.20;;;;;;5064704;28;20035;-61
2024/03/27 08:23:19;;;;;;;34.28;6.55;;;13.30;87.30;;;;;;5045541;28;20109;-60
2024/03/27 08:25:45;;;;;;;34.47;5.60;;;13.30;87.30;;;;;;5044399;28;20076;-60
2024/03/27 08:28:10;;;;;;;27.52;4.43;;;13.30;87.50;;;;;;5045732;28;20414;-60
2024/03/27 08:30:36;;;;;;;25.30;4.38;;;13.30;87.40;;;;;;5043795;28;20033;-60
2024/03/27 08:33:02;;;;;;;20.58;4.00;;;13.30;87.10;;;;;;5048320;28;20021;-60
2024/03/27 08:35:27;;;;;;;36.00;5.20;;;13.40;87.10;;;;;;5063879;28;20036;-60
2024/03/27 08:37:53;;;;;;;30.60;5.28;;;13.40;87.50;;;;;;5067828;28;20040;-60
2024/03/27 08:40:19;;;;;;;35.47;5.03;;;13.40;87.20;;;;;;5068295;28;20044;-60
2024/03/27 08:42:44;;;;;;;28.92;5.07;;;13.40;87.30;;;;;;5065239;28;20428;-60
2024/03/27 08:45:10;;;;;;;26.05;4.05;;;13.40;87.20;;;;;;5069630;28;20020;-60
2024/03/27 08:47:36;;;;;;;25.48;3.88;;;13.40;86.80;;;;;;5075663;28;20022;-60
2024/03/27 08:50:01;;;;;;;21.48;3.28;;;13.40;86.60;;;;;;5064291;28;20126;-60
2024/03/27 08:52:27;;;;;;;39.13;4.75;;;13.40;86.50;;;;;;5062105;28;20334;-60
2024/03/27 08:54:53;;;;;;;25.75;3.72;;;13.40;86.50;;;;;;5048996;28;20032;-60
2024/03/27 08:57:19;;;;;;;33.85;4.60;;;13.40;86.50;;;;;;5051691;28;20038;-60
2024/03/27 08:59:45;;;;;;;24.70;3.97;;;13.40;86.50;;;;;;5025656;28;20397;-60
2024/03/27 09:02:11;;;;;;;22.20;4.60;;;13.40;86.60;;;;;;5042346;28;20147;-60
2024/03/27 09:04:36;;;;;;;34.53;5.45;;;13.50;86.30;;;;;;5045853;28;20490;-60
2024/03/27 09:07:02;;;;;;;32.35;3.88;;;13.50;86.30;;;;;;5059075;28;20033;-60
2024/03/27 09:09:28;;;;;;;38.75;5.82;;;13.50;86.30;;;;;;5028511;28;20151;-60
2024/03/27 09:11:54;;;;;;;39.35;5.15;;;13.50;86.30;;;;;;5059499;28;20029;-61
2024/03/27 09:14:20;;;;;;;29.75;4.30;;;13.50;86.30;;;;;;5046253;28;20025;-60
2024/03/27 09:16:46;;;;;;;24.05;4.45;;;13.60;85.50;;;;;;5063302;28;20032;-60
2024/03/27 09:19:11;;;;;;;34.05;4.97;;;13.60;85.30;;;;;;5053082;28;20094;-61
2024/03/27 09:21:37;;;;;;;38.22;4.47;;;13.60;85.40;;;;;;5019639;28;20029;-60
2024/03/27 09:24:03;;;;;;;29.75;4.82;;;13.70;85.70;;;;;;5059225;28;20490;-60
2024/03/27 09:26:28;;;;;;;40.35;4.65;;;13.70;85.70;;;;;;5059924;28;20424;-60
2024/03/27 09:28:54;;;;;;;30.63;4.30;;;13.70;85.80;;;;;;5064746;28;20025;-60
2024/03/27 09:31:19;;;;;;;43.00;5.18;;;13.70;85.70;;;;;;5042335;28;20036;-60
2024/03/27 09:33:45;;;;;;;48.90;5.35;;;13.70;85.30;;;;;;5053450;28;20111;-60
2024/03/27 09:36:15;;;;;;;40.58;3.95;;;13.70;85.20;;;;;;5051223;28;20104;-60
2024/03/27 09:38:42;;;;;;;48.65;5.05;;;13.80;85.00;;;;;;5049160;28;20136;-60
2024/03/27 09:41:08;;;;;;;47.63;5.38;;;13.80;84.90;;;;;;5043523;28;20033;-60
2024/03/27 09:43:34;;;;;;;46.88;5.43;;;13.90;85.10;;;;;;5055522;28;20074;-60
2024/03/27 09:46:00;;;;;;;45.00;5.72;;;13.90;85.10;;;;;;5049316;28;20024;-60
2024/03/27 09:48:25;;;;;;;163.48;12.50;;;14.00;84.90;;;;;;5063132;28;20328;-60
2024/03/27 09:50:53;;;;;;;94.00;9.90;;;14.00;84.90;;;;;;5061078;28;20044;-60
2024/03/27 09:53:18;;;;;;;80.82;7.40;;;14.00;85.20;;;;;;5055738;28;20033;-60
2024/03/27 09:55:44;;;;;;;68.15;7.07;;;14.00;85.10;;;;;;5041553;28;20047;-60
2024/03/27 09:58:17;;;;;;;60.50;7.40;;;14.10;85.00;;;;;;5066458;28;20024;-60
2024/03/27 10:00:42;;;;;;;43.58;5.55;;;14.10;84.70;;;;;;5047393;28;20025;-60
2024/03/27 10:03:08;;;;;;;57.95;6.75;;;14.10;84.60;;;;;;5064290;28;20039;-60
2024/03/27 10:05:34;;;;;;;54.70;5.93;;;14.10;84.20;;;;;;5054612;28;20075;-60
2024/03/27 10:08:00;;;;;;;38.58;4.60;;;14.10;83.90;;;;;;5067571;28;20088;-60
2024/03/27 10:10:25;;;;;;;43.67;5.03;;;14.10;83.90;;;;;;5049404;28;20404;-60
2024/03/27 10:12:52;;;;;;;40.88;6.05;;;14.10;83.80;;;;;;5067440;28;20028;-60
2024/03/27 10:15:17;;;;;;;54.60;6.05;;;14.10;83.80;;;;;;5071263;28;20033;-60
2024/03/27 10:17:43;;;;;;;54.95;7.03;;;14.10;83.70;;;;;;5069283;28;20467;-60
2024/03/27 10:20:09;;;;;;;49.58;6.13;;;14.10;83.60;;;;;;5079199;28;20024;-60
2024/03/27 10:22:35;;;;;;;73.25;7.68;;;14.10;83.50;;;;;;5053802;28;20029;-60
2024/03/27 10:25:04;;;;;;;113.50;13.43;;;14.10;83.60;;;;;;5063220;28;20041;-60
2024/03/27 10:27:34;;;;;;;103.68;10.88;;;14.20;83.80;;;;;;5058565;28;20542;-61
2024/03/27 10:30:00;;;;;;;89.72;10.90;;;14.10;83.40;;;;;;5081192;28;20052;-61
2024/03/27 10:32:26;;;;;;;61.75;6.78;;;14.10;83.20;;;;;;5055559;28;20029;-60
2024/03/27 10:34:51;;;;;;;73.72;7.82;;;14.10;82.70;;;;;;5060389;28;20040;-60
2024/03/27 10:37:17;;;;;;;120.22;10.48;;;14.10;83.10;;;;;;5048951;28;20033;-60
2024/03/27 10:39:47;;;;;;;99.88;8.90;;;14.10;82.70;;;;;;5066905;28;20041;-60
2024/03/27 10:42:23;;;;;;;71.15;6.68;;;14.10;82.40;;;;;;5062894;28;20088;-60
2024/03/27 10:44:53;;;;;;;90.10;7.97;;;14.10;82.40;;;;;;5048201;28;20049;-60
2024/03/27 10:47:20;;;;;;;67.75;7.75;;;14.10;82.10;;;;;;5066781;28;20091;-60
2024/03/27 10:49:45;;;;;;;61.60;6.35;;;14.10;81.80;;;;;;5064714;28;20090;-60
2024/03/27 10:52:11;;;;;;;54.03;7.00;;;14.10;81.50;;;;;;5045817;28;20092;-60
2024/03/27 10:54:37;;;;;;;51.60;4.72;;;14.10;81.10;;;;;;5049048;28;20029;-61
2024/03/27 10:57:03;;;;;;;38.15;5.40;;;14.10;80.60;;;;;;5065564;28;20510;-60
2024/03/27 10:59:29;;;;;;;41.65;5.93;;;14.10;80.60;;;;;;5065583;28;20041;-60
2024/03/27 11:02:08;;;;;;;27.42;3.47;;;14.10;80.60;;;;;;5040414;28;20060;-61
2024/03/27 11:04:36;;;;;;;46.10;5.57;;;14.20;80.40;;;;;;5066346;28;20029;-60
2024/03/27 11:07:03;;;;;;;49.30;4.82;;;14.20;80.40;;;;;;5046427;28;20032;-61
2024/03/27 11:09:28;;;;;;;79.13;8.35;;;14.20;80.40;;;;;;5062288;28;20044;-61
2024/03/27 11:11:56;;;;;;;50.47;5.72;;;14.20;80.60;;;;;;5064757;28;20032;-61
2024/03/27 11:14:21;;;;;;;58.40;5.55;;;14.30;80.40;;;;;;5065228;28;20090;-61
2024/03/27 11:16:56;;;;;;;48.72;6.43;;;14.30;80.30;;;;;;5064779;28;20036;-61
2024/03/27 11:19:37;;;;;;;66.43;5.70;;;14.30;80.00;;;;;;5063879;28;20060;-61
2024/03/27 11:22:14;;;;;;;67.78;7.72;;;14.30;79.90;;;;;;5045203;28;20040;-61
2024/03/27 11:24:40;;;;;;;38.53;5.20;;;14.30;79.90;;;;;;5062965;28;20028;-61
2024/03/27 11:27:06;;;;;;;24.88;3.10;;;14.30;79.70;;;;;;5046167;28;20124;-61
2024/03/27 11:29:32;;;;;;;32.70;3.97;;;14.40;79.80;;;;;;5063020;28;20353;-60
2024/03/27 11:32:01;;;;;;;22.23;3.40;;;14.40;78.50;;;;;;5046285;28;20041;-61
2024/03/27 11:34:28;;;;;;;74.93;8.88;;;14.40;78.30;;;;;;5064230;28;20033;-60
2024/03/27 11:36:54;;;;;;;50.10;5.97;;;14.40;78.60;;;;;;5064782;28;20029;-60
2024/03/27 11:39:20;;;;;;;48.03;6.38;;;14.40;78.90;;;;;;5059858;28;20037;-60
2024/03/27 11:41:50;;;;;;;82.78;8.52;;;14.40;78.60;;;;;;5060559;28;20027;-61
2024/03/27 11:44:15;;;;;;;79.22;9.13;;;14.40;78.80;;;;;;5041606;28;20033;-61
2024/03/27 11:46:41;;;;;;;75.93;7.82;;;14.50;79.00;;;;;;5057573;28;20428;-62
2024/03/27 11:49:07;;;;;;;73.40;8.40;;;14.50;79.10;;;;;;5061653;28;20037;-61
2024/03/27 11:51:33;;;;;;;80.50;8.25;;;14.50;79.00;;;;;;5056775;28;20036;-61
2024/03/27 11:53:59;;;;;;;45.72;6.03;;;14.50;78.90;;;;;;5041773;28;20094;-61
2024/03/27 11:56:32;;;;;;;48.63;5.22;;;14.50;78.70;;;;;;5043555;28;20041;-61
2024/03/27 11:58:58;;;;;;;43.58;4.90;;;14.40;78.40;;;;;;5058201;28;20107;-58
2024/03/27 12:01:24;;;;;;;58.67;4.97;;;14.40;78.40;;;;;;5059978;28;20037;-58
2024/03/27 12:03:50;;;;;;;31.25;5.45;;;14.40;78.50;;;;;;5040944;28;20033;-58
2024/03/27 12:06:15;;;;;;;39.58;5.15;;;14.40;78.50;;;;;;5057427;28;20417;-59
2024/03/27 12:08:41;;;;;;;40.88;4.30;;;14.40;78.40;;;;;;5060896;28;20324;-58
2024/03/27 12:11:08;;;;;;;30.17;3.90;;;14.40;78.50;;;;;;5034862;28;20411;-58
2024/03/27 12:13:37;;;;;;;39.00;4.70;;;14.40;78.80;;;;;;5062520;28;20025;-58
2024/03/27 12:16:07;;;;;;;43.13;4.95;;;14.40;78.60;;;;;;5062077;28;20025;-58
2024/03/27 12:18:33;;;;;;;24.73;3.53;;;14.40;78.40;;;;;;5054219;28;20539;-58
2024/03/27 12:20:58;;;;;;;31.00;4.07;;;14.40;78.40;;;;;;5064053;28;20061;-58
2024/03/27 12:23:24;;;;;;;39.25;4.13;;;14.40;78.40;;;;;;5064484;28;20093;-58
2024/03/27 12:25:50;;;;;;;34.33;4.70;;;14.40;78.20;;;;;;5066937;28;20043;-58
2024/03/27 12:28:16;;;;;;;16.67;2.72;;;14.40;78.10;;;;;;5058650;28;20036;-58
2024/03/27 12:30:43;;;;;;;21.63;2.42;;;14.40;77.70;;;;;;5060272;28;20021;-58